createdAt,value
2018-12-03T00:00:02.132Z,1.10
2018-12-03T00:03:03.965Z,0.98
2018-12-03T00:05:48.802Z,1.00
2018-12-03T00:12:12.974Z,1.10
2018-12-03T00:14:57.215Z,1.20
2018-12-03T00:17:40.967Z,1.20
2018-12-03T00:20:25.602Z,1.20
2018-12-03T00:23:09.710Z,1.20
2018-12-03T00:26:11.586Z,1.40
2018-12-03T00:29:13.137Z,1.43
2018-12-03T00:31:57.768Z,1.00
2018-12-03T00:34:42.615Z,1.10
2018-12-03T00:37:26.814Z,1.50
2018-12-03T00:40:11.780Z,1.40
2018-12-03T00:46:35.981Z,1.43
2018-12-03T00:49:20.443Z,1.40
2018-12-03T00:55:45.141Z,1.50
2018-12-03T00:58:30.480Z,1.40
2018-12-03T01:04:55.199Z,1.17
2018-12-03T01:07:39.373Z,1.20
2018-12-03T01:10:23.990Z,1.57
2018-12-03T01:13:09.332Z,1.50
2018-12-03T01:19:34.009Z,1.40
2018-12-03T01:22:19.579Z,1.30
2018-12-03T01:25:03.892Z,1.43
2018-12-03T01:27:48.481Z,1.87
2018-12-03T01:30:32.724Z,1.60
2018-12-03T01:36:51.165Z,1.15
2018-12-03T01:39:36.488Z,1.63
2018-12-03T01:42:21.479Z,1.50
2018-12-03T01:45:05.823Z,1.83
2018-12-03T01:51:30.662Z,1.67
2018-12-03T01:54:15.365Z,2.60
2018-12-03T02:00:39.765Z,3.00
2018-12-03T02:03:23.999Z,3.43
2018-12-03T02:06:08.521Z,2.80
2018-12-03T02:08:53.496Z,2.67
2018-12-03T02:15:19.232Z,2.80
2018-12-03T02:17:55.650Z,3.00
2018-12-03T02:20:31.187Z,3.50
2018-12-03T02:23:09.686Z,3.65
2018-12-03T02:27:17.297Z,4.03
2018-12-03T02:30:02.654Z,4.00
2018-12-03T02:32:47.264Z,3.50
2018-12-03T02:35:31.764Z,3.57
2018-12-03T02:38:15.924Z,3.87
2018-12-03T02:41:17.799Z,3.55
2018-12-03T02:44:02.823Z,3.30
2018-12-03T02:46:47.822Z,4.00
2018-12-03T02:49:50.023Z,3.37
2018-12-03T02:52:34.516Z,3.60
2018-12-03T02:55:19.304Z,3.60
2018-12-03T02:58:04.406Z,4.13
2018-12-03T03:04:29.216Z,4.00
2018-12-03T03:07:31.034Z,4.27
2018-12-03T03:12:59.020Z,4.03
2018-12-03T03:16:12.583Z,3.70
2018-12-03T03:18:57.752Z,3.70
2018-12-03T03:25:22.668Z,3.30
2018-12-03T03:28:07.609Z,3.63
2018-12-03T03:30:52.522Z,3.75
2018-12-03T03:33:37.528Z,3.47
2018-12-03T03:40:02.855Z,3.40
2018-12-03T03:42:48.044Z,2.73
2018-12-03T03:45:32.695Z,2.63
2018-12-03T03:48:17.256Z,3.50
2018-12-03T03:51:02.509Z,3.37
2018-12-03T03:54:04.215Z,2.90
2018-12-03T03:56:48.842Z,2.87
2018-12-03T03:59:32.827Z,2.53
2018-12-03T04:02:34.820Z,2.80
2018-12-03T04:05:36.596Z,2.50
2018-12-03T04:08:21.202Z,2.50
2018-12-03T04:14:45.589Z,2.60
2018-12-03T04:17:47.221Z,2.63
2018-12-03T04:20:49.056Z,2.17
2018-12-03T04:23:33.541Z,2.60
2018-12-03T04:26:18.570Z,2.47
2018-12-03T04:29:02.720Z,2.20
2018-12-03T04:32:04.872Z,2.50
2018-12-03T04:34:49.543Z,2.13
2018-12-03T04:37:33.702Z,2.33
2018-12-03T04:40:18.120Z,1.90
2018-12-03T04:43:02.867Z,2.07
2018-12-03T04:46:04.825Z,1.90
2018-12-03T04:48:49.061Z,1.90
2018-12-03T04:51:50.859Z,1.87
2018-12-03T04:54:52.655Z,1.90
2018-12-03T04:57:37.963Z,1.97
2018-12-03T05:00:23.255Z,1.93
2018-12-03T05:03:07.714Z,2.00
2018-12-03T05:05:52.232Z,1.83
2018-12-03T05:08:37.573Z,1.70
2018-12-03T05:13:22.831Z,2.10
2018-12-03T05:16:07.843Z,1.83
2018-12-03T05:18:51.218Z,2.00
2018-12-03T05:21:35.554Z,1.80
2018-12-03T05:24:19.583Z,2.00
2018-12-03T05:27:04.351Z,1.90
2018-12-03T05:29:48.075Z,1.93
2018-12-03T05:32:32.641Z,1.80
2018-12-03T05:35:16.692Z,1.90
2018-12-03T05:38:01.076Z,1.80
2018-12-03T05:44:24.665Z,1.70
2018-12-03T05:47:08.915Z,1.77
2018-12-03T05:49:52.912Z,1.73
2018-12-03T05:52:54.573Z,1.93
2018-12-03T05:58:18.360Z,1.97
2018-12-03T06:01:03.014Z,2.10
2018-12-03T06:03:47.599Z,1.90
2018-12-03T06:10:11.261Z,1.97
2018-12-03T06:12:55.838Z,1.90
2018-12-03T06:19:19.924Z,1.90
2018-12-03T06:22:03.578Z,1.80
2018-12-03T06:24:47.337Z,1.80
2018-12-03T06:27:48.597Z,1.83
2018-12-03T06:30:32.567Z,1.95
2018-12-03T06:33:16.599Z,1.90
2018-12-03T06:36:02.742Z,2.37
2018-12-03T06:42:26.946Z,1.95
2018-12-03T06:45:11.691Z,2.10
2018-12-03T06:51:36.270Z,1.90
2018-12-03T06:54:20.172Z,2.00
2018-12-03T07:00:44.319Z,1.87
2018-12-03T07:03:28.393Z,1.87
2018-12-03T07:06:12.258Z,1.90
2018-12-03T07:08:56.214Z,1.60
2018-12-03T07:11:40.425Z,1.90
2018-12-03T07:14:24.382Z,1.90
2018-12-03T07:20:25.599Z,1.90
2018-12-03T07:23:09.059Z,1.50
2018-12-03T07:26:10.599Z,1.70
2018-12-03T07:28:54.942Z,1.65
2018-12-03T07:34:18.891Z,1.47
2018-12-03T07:37:03.876Z,1.67
2018-12-03T07:39:48.130Z,1.63
2018-12-03T07:46:11.912Z,1.60
2018-12-03T07:48:56.582Z,1.70
2018-12-03T07:51:40.630Z,1.70
2018-12-03T07:54:24.622Z,1.90
2018-12-03T08:01:12.988Z,1.70
2018-12-03T08:03:42.935Z,1.70
2018-12-03T08:10:06.995Z,1.60
2018-12-03T08:13:08.597Z,1.70
2018-12-03T08:15:53.234Z,1.40
2018-12-03T08:22:17.409Z,1.40
2018-12-03T08:25:19.340Z,1.50
2018-12-03T08:28:20.785Z,1.60
2018-12-03T08:31:22.621Z,1.50
2018-12-03T08:34:06.964Z,1.45
2018-12-03T08:36:51.289Z,1.60
2018-12-03T08:39:52.729Z,1.70
2018-12-03T08:42:36.921Z,1.70
2018-12-03T08:45:21.512Z,1.70
2018-12-03T08:48:05.628Z,1.57
2018-12-03T08:50:49.925Z,1.30
2018-12-03T08:53:33.919Z,1.55
2018-12-03T08:56:18.419Z,1.42
2018-12-03T08:59:19.734Z,1.50
2018-12-03T09:02:20.942Z,1.70
2018-12-03T09:05:05.217Z,1.32
2018-12-03T09:07:49.655Z,1.60
2018-12-03T09:10:34.461Z,1.40
2018-12-03T09:17:02.421Z,2.00
2018-12-03T09:19:44.214Z,1.50
2018-12-03T09:22:28.732Z,1.62
2018-12-03T09:25:39.471Z,1.60
2018-12-03T09:35:27.841Z,1.70
2018-12-03T09:38:12.659Z,1.60
2018-12-03T09:44:36.327Z,1.60
2018-12-03T09:47:20.158Z,1.33
2018-12-03T09:50:03.892Z,1.30
2018-12-03T09:52:48.761Z,1.50
2018-12-03T09:55:33.329Z,1.40
2018-12-03T09:58:35.682Z,1.55
2018-12-03T10:01:37.168Z,1.40
2018-12-03T10:04:21.327Z,1.50
2018-12-03T10:07:05.663Z,1.60
2018-12-03T10:09:49.924Z,1.32
2018-12-03T10:13:17.479Z,1.60
2018-12-03T10:16:04.172Z,1.37
2018-12-03T10:18:47.956Z,1.30
2018-12-03T10:21:32.833Z,1.40
2018-12-03T10:27:57.044Z,1.45
2018-12-03T10:30:58.667Z,1.40
2018-12-03T10:34:00.184Z,1.17
2018-12-03T10:36:44.926Z,1.37
2018-12-03T10:39:28.693Z,1.40
2018-12-03T10:42:12.448Z,1.50
2018-12-03T10:48:36.374Z,1.43
2018-12-03T10:51:37.668Z,1.17
2018-12-03T10:54:22.253Z,1.30
2018-12-03T11:00:46.669Z,1.30
2018-12-03T11:03:48.784Z,1.30
2018-12-03T11:12:23.843Z,1.30
2018-12-03T11:14:57.414Z,1.30
2018-12-03T11:17:31.907Z,1.40
2018-12-03T11:20:05.274Z,1.53
2018-12-03T11:22:39.030Z,1.40
2018-12-03T11:25:15.590Z,1.17
2018-12-03T11:27:52.127Z,1.30
2018-12-03T11:30:26.231Z,1.30
2018-12-03T11:33:00.232Z,1.33
2018-12-03T11:35:34.987Z,1.27
2018-12-03T11:38:13.027Z,1.10
2018-12-03T11:41:44.943Z,1.40
2018-12-03T11:44:18.512Z,1.30
2018-12-03T11:46:52.087Z,1.20
2018-12-03T11:49:29.002Z,1.30
2018-12-03T11:52:02.686Z,1.17
2018-12-03T11:54:36.242Z,1.10
2018-12-03T11:57:10.982Z,1.23
2018-12-03T11:59:44.986Z,1.10
2018-12-03T12:02:19.338Z,1.37
2018-12-03T12:04:53.007Z,1.30
2018-12-03T12:07:26.579Z,1.20
2018-12-03T12:10:00.243Z,1.40
2018-12-03T12:12:34.027Z,1.20
2018-12-03T12:15:10.250Z,1.20
2018-12-03T12:17:44.036Z,1.20
2018-12-03T12:20:17.868Z,1.20
2018-12-03T12:22:51.240Z,1.10
2018-12-03T12:25:24.629Z,1.40
2018-12-03T12:27:59.842Z,1.35
2018-12-03T12:30:33.414Z,1.35
2018-12-03T12:33:06.972Z,1.30
2018-12-03T12:38:13.022Z,1.30
2018-12-03T12:40:46.793Z,1.07
2018-12-03T12:43:20.347Z,1.10
2018-12-03T12:46:03.296Z,1.27
2018-12-03T12:48:37.044Z,1.10
2018-12-03T12:53:42.602Z,1.03
2018-12-03T12:56:16.536Z,1.27
2018-12-03T12:58:50.275Z,1.15
2018-12-03T13:01:24.155Z,1.13
2018-12-03T13:03:58.041Z,1.10
2018-12-03T13:06:32.045Z,1.12
2018-12-03T13:09:06.430Z,1.00
2018-12-03T13:11:41.054Z,1.17
2018-12-03T13:14:16.114Z,1.30
2018-12-03T13:16:50.032Z,1.07
2018-12-03T13:19:23.895Z,1.30
2018-12-03T13:21:57.544Z,1.20
2018-12-03T13:24:31.267Z,1.30
2018-12-03T13:29:36.273Z,1.20
2018-12-03T13:32:09.979Z,1.10
2018-12-03T13:34:43.272Z,1.10
2018-12-03T13:37:17.040Z,1.13
2018-12-03T13:39:50.704Z,1.10
2018-12-03T13:42:24.286Z,1.20
2018-12-03T13:44:58.116Z,1.10
2018-12-03T13:47:32.050Z,1.30
2018-12-03T13:50:05.628Z,1.00
2018-12-03T13:52:39.626Z,1.20
2018-12-03T13:55:16.329Z,1.03
2018-12-03T13:57:50.162Z,0.90
2018-12-03T14:00:28.279Z,1.10
2018-12-03T14:03:34.583Z,1.00
2018-12-03T14:06:14.129Z,1.10
2018-12-03T14:09:24.994Z,1.12
2018-12-03T14:12:22.959Z,1.10
2018-12-03T14:15:10.454Z,1.00
2018-12-03T14:17:48.646Z,1.10
2018-12-03T14:20:22.623Z,1.00
2018-12-03T14:23:01.631Z,1.20
2018-12-03T14:25:35.107Z,1.20
2018-12-03T14:28:09.031Z,1.20
2018-12-03T14:30:43.073Z,1.07
2018-12-03T14:35:48.292Z,1.00
2018-12-03T14:38:22.204Z,1.00
2018-12-03T14:40:56.002Z,1.17
2018-12-03T14:43:30.027Z,1.10
2018-12-03T14:46:03.457Z,1.20
2018-12-03T14:48:37.078Z,1.10
2018-12-03T14:53:43.063Z,1.05
2018-12-03T14:56:17.047Z,1.10
2018-12-03T14:58:50.339Z,1.10
2018-12-03T15:01:24.174Z,0.90
2018-12-03T15:03:58.107Z,1.10
2018-12-03T15:06:32.034Z,1.00
2018-12-03T15:09:06.967Z,1.00
2018-12-03T15:11:40.826Z,1.00
2018-12-03T15:14:14.302Z,1.30
2018-12-03T15:16:47.921Z,1.10
2018-12-03T15:19:21.583Z,1.10
2018-12-03T15:21:55.316Z,0.83
2018-12-03T15:24:29.071Z,1.20
2018-12-03T15:27:02.648Z,1.10
2018-12-03T15:29:36.313Z,0.97
2018-12-03T15:32:10.160Z,1.00
2018-12-03T15:34:44.064Z,1.10
2018-12-03T15:37:17.347Z,1.15
2018-12-03T15:39:51.303Z,1.00
2018-12-03T15:42:25.488Z,1.20
2018-12-03T15:44:59.303Z,1.00
2018-12-03T15:47:33.108Z,1.17
2018-12-03T15:50:07.034Z,1.20
2018-12-03T15:52:40.490Z,1.20
2018-12-03T15:55:14.314Z,1.10
2018-12-03T15:57:48.319Z,1.05
2018-12-03T16:01:28.598Z,1.10
2018-12-03T16:04:02.636Z,1.15
2018-12-03T16:06:36.367Z,0.90
2018-12-03T16:09:13.015Z,1.07
2018-12-03T16:11:46.604Z,1.00
2018-12-03T16:14:20.834Z,1.00
2018-12-03T16:16:54.658Z,1.10
2018-12-03T16:19:28.639Z,0.90
2018-12-03T16:22:02.099Z,1.10
2018-12-03T16:24:36.247Z,1.07
2018-12-03T16:27:10.330Z,1.02
2018-12-03T16:29:44.507Z,1.00
2018-12-03T16:32:18.390Z,1.10
2018-12-03T16:34:52.503Z,1.00
2018-12-03T16:37:26.411Z,1.03
2018-12-03T16:40:00.182Z,1.07
2018-12-03T16:42:33.874Z,1.00
2018-12-03T16:45:08.571Z,1.10
2018-12-03T16:47:42.583Z,1.10
2018-12-03T16:50:16.515Z,1.00
2018-12-03T16:52:50.106Z,1.20
2018-12-03T16:55:24.087Z,0.93
2018-12-03T16:57:58.199Z,1.10
2018-12-03T17:00:32.156Z,1.10
2018-12-03T17:03:06.341Z,1.10
2018-12-03T17:05:40.218Z,1.10
2018-12-03T17:08:14.161Z,1.00
2018-12-03T17:10:47.619Z,1.00
2018-12-03T17:13:21.531Z,1.10
2018-12-03T17:15:55.830Z,1.22
2018-12-03T17:18:29.516Z,1.12
2018-12-03T17:21:27.911Z,1.20
2018-12-03T17:24:19.524Z,1.30
2018-12-03T17:26:53.130Z,1.70
2018-12-03T17:29:27.051Z,2.30
2018-12-03T17:32:00.538Z,2.27
2018-12-03T17:34:34.351Z,2.33
2018-12-03T17:37:08.429Z,2.00
2018-12-03T17:39:42.026Z,2.27
2018-12-03T17:42:15.632Z,2.00
2018-12-03T17:44:49.714Z,2.00
2018-12-03T17:47:23.359Z,2.10
2018-12-03T17:49:57.350Z,2.00
2018-12-03T17:52:30.994Z,2.25
2018-12-03T17:55:04.693Z,2.47
2018-12-03T17:57:38.551Z,2.27
2018-12-03T18:00:15.852Z,2.20
2018-12-03T18:02:49.144Z,2.17
2018-12-03T18:05:22.734Z,2.47
2018-12-03T18:07:56.540Z,2.53
2018-12-03T18:10:30.265Z,2.30
2018-12-03T18:13:03.728Z,2.42
2018-12-03T18:15:37.369Z,2.30
2018-12-03T18:18:11.175Z,2.15
2018-12-03T18:20:45.159Z,2.33
2018-12-03T18:23:18.562Z,2.10
2018-12-03T18:25:52.443Z,2.10
2018-12-03T18:28:26.538Z,1.87
2018-12-03T18:31:00.003Z,2.30
2018-12-03T18:33:33.542Z,2.23
2018-12-03T18:36:07.173Z,2.20
2018-12-03T18:38:41.448Z,2.10
2018-12-03T18:41:15.134Z,2.00
2018-12-03T18:43:48.550Z,2.00
2018-12-03T18:46:22.283Z,2.10
2018-12-03T18:49:01.169Z,2.37
2018-12-03T18:51:35.131Z,2.30
2018-12-03T18:54:08.388Z,2.30
2018-12-03T18:56:42.077Z,2.20
2018-12-03T18:59:15.732Z,2.42
2018-12-03T19:01:49.394Z,2.30
2018-12-03T19:04:23.154Z,2.15
2018-12-03T19:06:56.821Z,2.13
2018-12-03T19:09:30.405Z,1.77
2018-12-03T19:12:04.386Z,2.17
2018-12-03T19:14:38.271Z,1.90
2018-12-03T19:17:12.015Z,2.10
2018-12-03T19:19:45.392Z,1.83
2018-12-03T19:22:18.766Z,2.10
2018-12-03T19:24:52.668Z,2.08
2018-12-03T19:27:26.535Z,2.10
2018-12-03T19:30:00.669Z,2.37
2018-12-03T19:32:33.789Z,2.20
2018-12-03T19:35:07.730Z,2.20
2018-12-03T19:37:41.142Z,2.17
2018-12-03T19:40:15.155Z,1.90
2018-12-03T19:42:49.399Z,2.60
2018-12-03T19:45:23.394Z,2.10
2018-12-03T19:47:56.572Z,2.20
2018-12-03T19:50:30.014Z,2.27
2018-12-03T19:53:03.180Z,2.50
2018-12-03T19:55:36.745Z,2.50
2018-12-03T19:58:13.742Z,2.22
2018-12-03T20:00:48.067Z,2.08
2018-12-03T20:03:21.680Z,2.20
2018-12-03T20:05:55.402Z,1.70
2018-12-03T20:08:29.201Z,2.00
2018-12-03T20:11:02.600Z,1.80
2018-12-03T20:13:36.313Z,1.90
2018-12-03T20:16:10.131Z,2.00
2018-12-03T20:18:44.138Z,2.17
2018-12-03T20:21:22.290Z,2.02
2018-12-03T20:24:00.064Z,2.08
2018-12-03T20:26:40.313Z,2.17
2018-12-03T20:29:26.412Z,2.05
2018-12-03T20:32:14.172Z,1.90
2018-12-03T20:35:58.964Z,1.75
2018-12-03T20:38:38.183Z,2.20
2018-12-03T20:43:33.205Z,2.20
2018-12-03T20:47:22.165Z,2.15
2018-12-03T20:50:04.698Z,2.05
2018-12-03T20:52:38.281Z,2.40
2018-12-03T20:55:18.254Z,2.17
2018-12-03T20:57:51.780Z,2.00
2018-12-03T21:00:26.161Z,1.90
2018-12-03T21:03:02.197Z,1.93
2018-12-03T21:05:36.067Z,1.82
2018-12-03T21:08:10.287Z,1.80
2018-12-03T21:10:44.116Z,1.73
2018-12-03T21:13:17.834Z,2.00
2018-12-03T21:15:51.210Z,2.10
2018-12-03T21:18:24.930Z,2.00
2018-12-03T21:20:58.809Z,1.90
2018-12-03T21:23:32.721Z,1.40
2018-12-03T21:26:06.438Z,2.03
2018-12-03T21:28:40.487Z,1.65
2018-12-03T21:31:14.242Z,1.72
2018-12-03T21:33:48.253Z,1.70
2018-12-03T21:36:22.347Z,1.67
2018-12-03T21:38:56.283Z,1.70
2018-12-03T21:41:29.923Z,1.70
2018-12-03T21:44:03.244Z,1.80
2018-12-03T21:46:36.931Z,1.90
2018-12-03T21:49:12.203Z,1.80
2018-12-03T21:51:45.822Z,2.10
2018-12-03T21:54:19.623Z,1.80
2018-12-03T21:56:53.307Z,2.00
2018-12-03T21:59:26.919Z,2.00
2018-12-03T22:05:41.222Z,1.60
2018-12-03T22:08:14.619Z,1.70
2018-12-03T22:10:48.090Z,1.80
2018-12-03T22:13:21.218Z,1.70
2018-12-03T22:15:54.732Z,2.10
2018-12-03T22:18:28.147Z,1.70
2018-12-03T22:21:01.835Z,1.70
2018-12-03T22:23:35.451Z,1.73
2018-12-03T22:26:09.221Z,2.02
2018-12-03T22:28:42.632Z,1.82
2018-12-03T22:31:16.278Z,2.00
2018-12-03T22:33:50.798Z,1.85
2018-12-03T22:36:24.456Z,1.62
2018-12-03T22:38:58.169Z,2.10
2018-12-03T22:44:43.228Z,1.92
2018-12-03T22:47:16.492Z,2.15
2018-12-03T22:49:50.222Z,1.93
2018-12-03T22:52:24.142Z,1.82
2018-12-03T22:54:57.634Z,1.80
2018-12-03T22:57:31.462Z,1.98
2018-12-03T23:00:05.458Z,2.10
2018-12-03T23:02:39.268Z,1.80
2018-12-03T23:05:12.855Z,2.20
2018-12-03T23:07:46.512Z,2.00
2018-12-03T23:10:19.666Z,2.00
2018-12-03T23:12:53.470Z,2.13
2018-12-03T23:15:26.646Z,1.70
2018-12-03T23:17:59.643Z,2.03
2018-12-03T23:20:33.253Z,2.00
2018-12-03T23:23:06.864Z,1.77
2018-12-03T23:27:44.186Z,1.80
2018-12-03T23:30:17.479Z,1.70
2018-12-03T23:32:51.235Z,1.90
2018-12-03T23:35:25.122Z,1.80
2018-12-03T23:37:58.540Z,2.07
2018-12-03T23:40:31.759Z,2.10
2018-12-03T23:43:06.307Z,2.00
2018-12-03T23:45:41.171Z,2.12
2018-12-03T23:48:14.922Z,2.07
2018-12-03T23:50:49.877Z,2.10
2018-12-03T23:59:31.816Z,2.10
